Nearby METAR Reports

 

EGKA - Shoreham-By-Sea, United Kingdom
Distance from station: SW 9mi, 14km
Updated: Wed, 20-Jun-2018 7:50pm BST
NOT Current
Partly Cloudy
Partly Cloudy
 Wind from WSW
Wind: WSW 10 mph , 17 km/h
Temperature: 17°C
Dew Point: 15°C
Humidity: 88%
Barometer: 1019 hPa
Clouds: Partly Cloudy
Visibility: 6 miles , 10 km
Cloud details: Few Clouds 61 m
Few Clouds 396 m
Partly Cloudy 1463 m
2018/06/20 18:50 EGKA 201850Z 24009KT 9999 6000E FEW002 FEW013 SCT048 17/15 Q1019
EGKK - London/Gatwick A, United Kingdom
Distance from station: N 14mi, 22km
Updated: Wed, 20-Jun-2018 9:50pm BST
Few Clouds
Few Clouds
 Wind from W
Wind: W 8 mph , 13 km/h
Temperature: 19°C
Dew Point: 15°C
Humidity: 78%
Barometer: 1019 hPa
Clouds: Few Clouds
Visibility: 6 miles , 10 km
Cloud details: Few Clouds 549 m
2018/06/20 20:50 EGKK 202050Z 28007KT 250V350 9999 FEW018 19/15 Q1019
 
EGKB - Biggin Hill, United Kingdom
Distance from station: NNE 28mi, 44km
Updated: Wed, 20-Jun-2018 9:50pm BST
Clear
Clear
 Wind from W
Wind: W 9 mph , 15 km/h
Temperature: 18°C
Dew Point: 14°C
Humidity: 78%
Barometer: 1019 hPa
Summary: Clear
Visibility: greater than 7 miles , 10 km
2018/06/20 20:50 EGKB 202050Z 28008KT 250V310 CAVOK 18/14 Q1019
EGLF - Farnborough, United Kingdom
Distance from station: NW 35mi, 56km
Updated: Wed, 20-Jun-2018 8:50pm BST
NOT Current
Partly Cloudy
Partly Cloudy
 Wind from W
Wind: W 7 mph , 11 km/h
Temperature: 18°C
Dew Point: 14°C
Humidity: 78%
Barometer: 1019 hPa
Clouds: Partly Cloudy
Visibility: 6 miles , 10 km
Cloud details: Partly Cloudy 579 m
2018/06/20 19:50 EGLF 201950Z 27006KT 240V310 9999 SCT019 18/14 Q1019
 
EGMD - Lydd Airport, United Kingdom
Distance from station: E 48mi, 77km
Updated: Wed, 20-Jun-2018 9:50pm BST
Mist, Mostly cloudy
Mist, Mostly cloudy
 Wind from WSW
Wind: WSW 12 mph , 19 km/h
Temperature: 15°C
Dew Point: 15°C
Humidity: 100%
Barometer: 1019 hPa
Summary: Mist
Clouds: Mostly Cloudy
Visibility: 1 mile , 1 km
Cloud details: Mostly Cloudy 30 m
Mostly Cloudy 518 m
2018/06/20 20:50 EGMD 202050Z 24010KT 1300 BR BKN001 BKN017 15/15 Q1019
EGHI - Southampton Wx C, United Kingdom
Distance from station: W 50mi, 82km
Updated: Wed, 20-Jun-2018 9:50pm BST
Few Clouds
Few Clouds
 Wind from W
Wind: W 7 mph , 11 km/h
Temperature: 17°C
Dew Point: 11°C
Humidity: 68%
Barometer: 1020 hPa
Clouds: Few Clouds
Visibility: 6 miles , 10 km
Cloud details: Few Clouds 671 m
2018/06/20 20:50 EGHI 202050Z 28006KT 240V350 9999 FEW022 17/11 Q1020

Metar display script from Saratoga-Weather.org